Time;durP1;ratioP1;P1;durP2;ratioP2;P2;SDS_P1;SDS_P2;PMS_P1;PMS_P2;Temp;Humidity;BMP_temperature;BMP_pressure;BME280_temperature;BME280_humidity;BME280_pressure;Samples;Min_cycle;Max_cycle;Signal;HPM_P1;HPM_P2
2022/11/04 00:01:08;;;;;;;;;;;;;;;12.14;57.82;100039.16;5100849;28;19920;-85
2022/11/04 00:03:33;;;;;;;;;;;;;;;11.98;58.32;100048.22;5094120;28;19922;-86
2022/11/04 00:06:01;;;;;;;;;;;;;;;11.95;58.22;100032.41;5102395;28;19923;-84
2022/11/04 00:08:27;;;;;;;;;;;;;;;11.74;58.68;100031.81;5109374;28;20427;-84
2022/11/04 00:13:40;;;;;;;;;;;;;;;11.11;58.93;100030.84;5088393;28;19927;-85
2022/11/04 00:18:49;;;;;;;;;;;;;;;11.07;59.07;100028.25;5088823;28;20356;-85
2022/11/04 00:29:26;;;;;;;;;;;;;;;11.10;59.36;100026.44;5108758;28;20674;-84
2022/11/04 00:34:35;;;;;;;;;;;;;;;11.10;59.78;100025.59;5108781;28;19968;-84
2022/11/04 00:37:01;;;;;;;;;;;;;;;11.17;59.12;100026.38;5094650;28;19916;-84
2022/11/04 00:39:27;;;;;;;;;;;;;;;11.16;59.59;100019.38;5088323;28;19916;-84
2022/11/04 00:41:53;;;;;;;;;;;;;;;11.23;59.31;100021.91;5087107;28;19912;-86
2022/11/04 00:44:18;;;;;;;;;;;;;;;11.26;59.23;100015.69;5088297;28;20340;-84
2022/11/04 00:46:43;;;;;;;;;;;;;;;11.36;59.29;100024.41;5088273;28;20357;-85
2022/11/04 00:49:09;;;;;;;;;;;;;;;11.30;59.53;100025.34;5088982;28;19922;-85
2022/11/04 00:51:34;;;;;;;;;;;;;;;11.33;59.38;100024.44;5106495;28;19915;-84
2022/11/04 00:53:59;;;;;;;;;;;;;;;11.35;59.52;100022.63;5087880;28;20035;-84
2022/11/04 00:56:25;;;;;;;;;;;;;;;11.38;59.39;100020.81;5088946;28;19912;-84
2022/11/04 00:58:50;;;;;;;;;;;;;;;11.38;59.55;100025.25;5088194;28;19944;-85
2022/11/04 01:01:16;;;;;;;;;;;;;;;11.23;59.95;100027.19;5088456;28;19918;-85
2022/11/04 01:03:41;;;;;;;;;;;;;;;11.18;60.44;100031.63;5088058;28;20344;-85
2022/11/04 01:06:07;;;;;;;;;;;;;;;11.15;60.62;100030.81;5090437;28;19919;-82
2022/11/04 01:08:33;;;;;;;;;;;;;;;11.17;60.73;100027.28;5107335;28;19919;-84
2022/11/04 01:11:00;;;;;;;;;;;;;;;11.19;60.54;100014.06;5111060;28;19931;-82
2022/11/04 01:13:25;;;;;;;;;;;;;;;11.23;60.76;100015.75;5107974;28;20034;-84
2022/11/04 01:15:51;;;;;;;;;;;;;;;11.25;60.82;100017.47;5107976;28;20018;-84
2022/11/04 01:18:16;;;;;;;;;;;;;;;11.21;60.82;100010.47;5108499;28;20459;-84
2022/11/04 01:20:41;;;;;;;;;;;;;;;11.24;59.76;100014.84;5106275;28;19923;-84
2022/11/04 01:23:07;;;;;;;;;;;;;;;10.89;60.55;100014.38;5098511;28;19924;-84
2022/11/04 01:25:32;;;;;;;;;;;;;;;10.87;61.01;100013.50;5098935;28;19984;-84
2022/11/04 01:27:57;;;;;;;;;;;;;;;11.05;59.83;100020.34;5099936;28;19922;-84
2022/11/04 01:30:23;;;;;;;;;;;;;;;10.96;60.07;100012.53;5087719;28;19920;-85
2022/11/04 01:32:48;;;;;;;;;;;;;;;10.90;60.39;100018.75;5087605;28;19963;-86
2022/11/04 01:35:13;;;;;;;;;;;;;;;10.86;60.28;100009.16;5086715;28;19912;-85
2022/11/04 01:37:39;;;;;;;;;;;;;;;10.93;59.85;100013.44;5105392;28;19977;-86
2022/11/04 01:40:04;;;;;;;;;;;;;;;10.75;59.64;100006.63;5107504;28;19919;-86
2022/11/04 01:42:29;;;;;;;;;;;;;;;10.74;59.64;100006.66;5107345;28;19946;-86
2022/11/04 01:44:56;;;;;;;;;;;;;;;10.69;60.27;99998.78;5105764;28;19922;-86
2022/11/04 01:47:22;;;;;;;;;;;;;;;10.77;59.60;100011.00;5107557;28;19916;-85
2022/11/04 01:49:50;;;;;;;;;;;;;;;10.89;58.98;100013.50;5107482;28;20385;-86
2022/11/04 01:52:23;;;;;;;;;;;;;;;10.74;59.47;100007.50;5106911;28;19929;-86
2022/11/04 01:54:49;;;;;;;;;;;;;;;10.66;60.04;100006.72;5107783;28;19912;-86
2022/11/04 01:57:17;;;;;;;;;;;;;;;10.63;59.76;100009.41;5107736;28;19916;-86
2022/11/04 01:59:43;;;;;;;;;;;;;;;10.61;60.33;100005.88;5107286;28;19916;-86
2022/11/04 02:02:08;;;;;;;;;;;;;;;10.49;59.80;100013.94;5107306;28;19919;-86
2022/11/04 02:04:35;;;;;;;;;;;;;;;10.68;59.42;100004.06;5107215;28;19915;-86
2022/11/04 02:07:04;;;;;;;;;;;;;;;10.38;59.47;100003.50;5107761;28;19985;-86
2022/11/04 02:09:30;;;;;;;;;;;;;;;10.12;59.78;100001.06;5101030;28;19977;-85
2022/11/04 02:14:40;;;;;;;;;;;;;;;10.30;59.29;99998.25;5087287;28;19927;-86
2022/11/04 02:17:18;;;;;;;;;;;;;;;10.16;59.17;99986.94;5087148;28;19920;-86
2022/11/04 02:19:43;;;;;;;;;;;;;;;9.98;60.32;99988.84;5086886;28;19916;-86
2022/11/04 02:22:34;;;;;;;;;;;;;;;9.77;61.09;99989.88;5096081;28;20038;-86
2022/11/04 02:25:18;;;;;;;;;;;;;;;9.74;60.83;99991.66;5075863;28;19968;-85
2022/11/04 02:28:19;;;;;;;;;;;;;;;9.83;60.84;99989.81;5092414;28;19916;-87
2022/11/04 02:30:44;;;;;;;;;;;;;;;9.84;61.19;99985.44;5004269;28;19925;-85
2022/11/04 02:33:32;;;;;;;;;;;;;;;9.90;60.55;99979.25;5069121;28;20329;-85
2022/11/04 02:36:04;;;;;;;;;;;;;;;9.74;61.55;99983.75;5086701;28;20410;-85
2022/11/04 02:38:41;;;;;;;;;;;;;;;9.76;61.33;99979.34;5086582;28;19920;-86
2022/11/04 02:41:07;;;;;;;;;;;;;;;9.81;61.10;99980.22;5086313;28;20648;-85
2022/11/04 02:43:51;;;;;;;;;;;;;;;9.63;61.32;99976.78;5086816;28;19930;-85
2022/11/04 02:46:35;;;;;;;;;;;;;;;9.50;62.00;99968.09;5105475;28;20382;-85
2022/11/04 02:49:03;;;;;;;;;;;;;;;9.64;62.62;99973.28;5090451;28;19927;-84
2022/11/04 02:51:36;;;;;;;;;;;;;;;9.68;62.16;99979.41;5090353;28;19920;-84
2022/11/04 02:54:01;;;;;;;;;;;;;;;9.81;62.02;99967.91;5090311;28;19916;-84
2022/11/04 02:56:27;;;;;;;;;;;;;;;9.77;62.02;99967.94;5090266;28;19922;-84
2022/11/04 02:58:56;;;;;;;;;;;;;;;9.72;61.94;99967.97;5090262;28;19916;-84
2022/11/04 03:01:22;;;;;;;;;;;;;;;9.64;62.27;99970.66;5091151;28;19922;-85
2022/11/04 03:03:51;;;;;;;;;;;;;;;9.75;62.12;99960.03;5090578;28;19923;-85
2022/11/04 03:06:20;;;;;;;;;;;;;;;9.68;61.76;99967.13;5090140;28;19920;-85
2022/11/04 03:08:48;;;;;;;;;;;;;;;9.49;61.83;99962.84;5089876;28;19920;-85
2022/11/04 03:11:15;;;;;;;;;;;;;;;9.46;61.88;99958.47;5090088;28;20416;-85
2022/11/04 03:13:47;;;;;;;;;;;;;;;9.43;62.24;99962.88;5089666;28;20362;-84
2022/11/04 03:16:16;;;;;;;;;;;;;;;9.20;63.02;99971.78;5090196;28;19912;-85
2022/11/04 03:19:00;;;;;;;;;;;;;;;9.30;62.32;99959.47;5089913;28;19965;-85
2022/11/04 03:21:27;;;;;;;;;;;;;;;9.17;62.50;99961.25;5101420;28;20365;-85
2022/11/04 03:23:53;;;;;;;;;;;;;;;9.22;62.32;99964.78;5109922;27;20064;-85
2022/11/04 03:26:24;;;;;;;;;;;;;;;9.37;62.21;99961.16;5109555;28;20002;-85
2022/11/04 03:28:49;;;;;;;;;;;;;;;9.24;62.80;99970.88;5110320;28;19915;-85
2022/11/04 03:31:31;;;;;;;;;;;;;;;8.82;64.73;99969.31;5109920;28;20324;-85
2022/11/04 03:33:57;;;;;;;;;;;;;;;9.16;64.45;99975.31;5110082;28;19916;-84
2022/11/04 03:36:23;;;;;;;;;;;;;;;9.24;64.77;99965.63;5108631;28;19919;-85
2022/11/04 03:38:49;;;;;;;;;;;;;;;9.29;64.53;99976.13;5109880;28;19980;-85
2022/11/04 03:41:17;;;;;;;;;;;;;;;9.35;64.67;99973.47;5109910;27;19916;-85
2022/11/04 03:43:42;;;;;;;;;;;;;;;9.32;64.21;99974.34;5109481;28;20425;-84
2022/11/04 03:46:08;;;;;;;;;;;;;;;9.53;63.78;99982.13;5109600;28;19923;-85
2022/11/04 03:48:33;;;;;;;;;;;;;;;9.63;63.67;99982.06;5109773;28;19915;-84
2022/11/04 03:50:59;;;;;;;;;;;;;;;9.52;64.18;99980.41;5109026;28;19920;-84
2022/11/04 03:53:25;;;;;;;;;;;;;;;9.29;65.60;99982.25;5109329;28;19994;-84
2022/11/04 03:55:50;;;;;;;;;;;;;;;9.65;65.10;99980.31;5109325;28;19938;-84
2022/11/04 03:58:31;;;;;;;;;;;;;;;9.67;65.22;99985.56;5108489;28;20369;-85
2022/11/04 04:01:02;;;;;;;;;;;;;;;9.78;64.62;99974.97;5106676;27;20407;-83
2022/11/04 04:03:33;;;;;;;;;;;;;;;9.80;64.48;99975.81;5108942;28;20006;-85
2022/11/04 04:06:05;;;;;;;;;;;;;;;9.58;64.93;99970.69;5106091;28;19934;-86
2022/11/04 04:08:39;;;;;;;;;;;;;;;9.71;65.70;99970.59;5088949;28;19912;-87
2022/11/04 04:11:05;;;;;;;;;;;;;;;9.58;66.45;99973.31;5089008;28;20416;-85
2022/11/04 04:13:39;;;;;;;;;;;;;;;9.69;65.40;99970.63;5092909;27;19920;-85
2022/11/04 04:16:20;;;;;;;;;;;;;;;9.64;62.37;99975.91;5088233;28;19998;-83
2022/11/04 04:18:54;;;;;;;;;;;;;;;9.29;62.74;99968.22;5092169;28;20313;-84
2022/11/04 04:21:21;;;;;;;;;;;;;;;9.27;62.97;99970.88;5089251;28;19916;-85
2022/11/04 04:29:18;;;;;;;;;;;;;;;9.42;63.46;99972.56;5095308;28;20319;-86
2022/11/04 04:31:48;;;;;;;;;;;;;;;9.60;63.48;99965.41;5108255;28;19912;-88
2022/11/04 04:34:21;;;;;;;;;;;;;;;9.45;63.76;99972.53;5093342;28;20065;-86
2022/11/04 04:37:05;;;;;;;;;;;;;;;9.36;63.93;99969.97;5088027;28;19912;-88
2022/11/04 04:45:03;;;;;;;;;;;;;;;9.57;64.24;99981.25;5087625;28;19923;-85
2022/11/04 04:47:38;;;;;;;;;;;;;;;9.53;63.95;99980.41;5087966;28;19962;-85
2022/11/04 04:50:04;;;;;;;;;;;;;;;9.54;63.99;99976.00;5087976;28;19934;-86
2022/11/04 04:52:35;;;;;;;;;;;;;;;9.65;64.11;99974.16;5087600;28;20382;-85
2022/11/04 04:55:00;;;;;;;;;;;;;;;9.57;64.34;99975.97;5099327;28;19920;-88
2022/11/04 04:57:26;;;;;;;;;;;;;;;9.55;63.33;99978.63;5108099;28;20394;-85
2022/11/04 04:59:51;;;;;;;;;;;;;;;9.41;64.23;99978.69;5107082;28;19998;-83
2022/11/04 05:02:16;;;;;;;;;;;;;;;9.37;65.44;99979.59;5097441;28;19920;-85
2022/11/04 05:04:42;;;;;;;;;;;;;;;9.39;65.20;99987.47;5101457;28;19942;-84
2022/11/04 05:07:08;;;;;;;;;;;;;;;9.49;65.14;99978.66;5108111;28;19920;-84
2022/11/04 05:09:34;;;;;;;;;;;;;;;9.49;65.86;99989.19;5107764;28;19961;-86
2022/11/04 05:11:59;;;;;;;;;;;;;;;9.79;65.54;99982.84;5107943;28;19951;-85
2022/11/04 05:14:24;;;;;;;;;;;;;;;9.88;65.05;99991.56;5107799;28;20282;-84
2022/11/04 05:16:50;;;;;;;;;;;;;;;9.89;65.67;99980.16;5105796;27;19968;-85
2022/11/04 05:19:15;;;;;;;;;;;;;;;9.89;65.26;99982.78;5103940;28;19926;-83
2022/11/04 05:21:40;;;;;;;;;;;;;;;9.94;65.42;99988.88;5104395;28;19930;-84
2022/11/04 05:24:06;;;;;;;;;;;;;;;9.82;66.47;99993.38;5102887;28;19915;-84
2022/11/04 05:26:31;;;;;;;;;;;;;;;9.99;65.92;99985.34;5107833;28;19915;-84
2022/11/04 05:28:56;;;;;;;;;;;;;;;10.00;65.92;99989.69;5106487;28;19934;-84
2022/11/04 05:31:23;;;;;;;;;;;;;;;10.06;65.68;99990.56;5107866;28;19970;-83
2022/11/04 05:33:48;;;;;;;;;;;;;;;10.18;65.56;99985.19;5107420;28;20014;-83
2022/11/04 05:36:15;;;;;;;;;;;;;;;10.12;66.15;99993.16;5107619;28;20389;-84
2022/11/04 05:38:41;;;;;;;;;;;;;;;10.29;65.56;99993.00;5107839;28;19934;-84
2022/11/04 05:41:07;;;;;;;;;;;;;;;10.35;65.52;99995.63;5104215;28;19926;-89
2022/11/04 05:43:32;;;;;;;;;;;;;;;10.25;65.87;99992.13;5088202;28;19927;-89
2022/11/04 05:45:58;;;;;;;;;;;;;;;10.37;65.99;99999.97;5087761;28;19912;-89
2022/11/04 05:48:24;;;;;;;;;;;;;;;10.46;66.40;100004.28;5091747;28;20096;-89
2022/11/04 05:50:49;;;;;;;;;;;;;;;10.71;65.86;100014.59;5092527;28;19920;-88
2022/11/04 05:53:14;;;;;;;;;;;;;;;10.83;65.70;100016.19;5107884;28;19922;-89
2022/11/04 05:55:40;;;;;;;;;;;;;;;10.96;64.92;100012.53;5095320;28;19927;-89
2022/11/04 05:58:05;;;;;;;;;;;;;;;10.88;65.16;99999.44;5092696;28;19953;-89
2022/11/04 06:00:32;;;;;;;;;;;;;;;11.11;64.99;100022.06;5105166;28;19915;-89
2022/11/04 06:02:57;;;;;;;;;;;;;;;11.29;64.56;100013.91;5118066;27;19915;-85
2022/11/04 06:05:23;;;;;;;;;;;;;;;11.22;64.62;100024.56;5106712;28;20377;-88
2022/11/04 06:07:49;;;;;;;;;;;;;;;11.33;64.57;100029.72;5109666;28;19924;-92
2022/11/04 06:10:14;;;;;;;;;;;;;;;11.48;63.89;100029.53;5108993;28;19936;-90
2022/11/04 06:12:40;;;;;;;;;;;;;;;11.59;63.42;100032.88;5085438;28;19923;-91
2022/11/04 06:15:06;;;;;;;;;;;;;;;11.49;63.53;100030.38;5093138;28;19995;-90
2022/11/04 06:17:31;;;;;;;;;;;;;;;11.65;63.18;100032.78;5096865;28;19916;-89
2022/11/04 06:19:56;;;;;;;;;;;;;;;11.73;63.95;100037.97;5105685;28;19927;-92
2022/11/04 06:22:22;;;;;;;;;;;;;;;11.85;63.81;100046.59;5088376;28;19923;-90
2022/11/04 06:24:47;;;;;;;;;;;;;;;12.08;63.37;100048.94;5093652;28;19927;-92
2022/11/04 06:27:13;;;;;;;;;;;;;;;12.09;62.52;100048.91;5110736;28;19915;-94
2022/11/04 06:29:40;;;;;;;;;;;;;;;12.29;62.32;100047.75;5120025;28;19938;-92
2022/11/04 06:32:06;;;;;;;;;;;;;;;12.39;61.75;100049.34;5134799;28;19938;-94
2022/11/04 06:34:31;;;;;;;;;;;;;;;12.53;61.45;100054.41;5135428;28;19907;-91
2022/11/04 06:36:57;;;;;;;;;;;;;;;12.65;60.87;100048.00;5136636;28;19939;-92
2022/11/04 06:39:24;;;;;;;;;;;;;;;12.68;60.59;100045.28;5120233;28;19947;-93
2022/11/04 06:41:50;;;;;;;;;;;;;;;12.51;61.11;100050.88;5137320;28;19924;-92
2022/11/04 06:44:15;;;;;;;;;;;;;;;12.86;61.26;100046.75;5137063;28;20307;-91
2022/11/04 06:46:41;;;;;;;;;;;;;;;12.93;61.13;100044.84;5118741;28;19927;-94
2022/11/04 06:49:10;;;;;;;;;;;;;;;13.07;59.87;100043.69;5109981;28;20028;-94
2022/11/04 06:51:36;;;;;;;;;;;;;;;13.16;60.01;100044.38;5095655;28;19925;-93
2022/11/04 06:54:01;;;;;;;;;;;;;;;13.17;59.35;100047.00;5111044;28;19912;-94
2022/11/04 06:56:27;;;;;;;;;;;;;;;13.11;59.59;100052.44;5093602;28;19916;-94
2022/11/04 06:58:53;;;;;;;;;;;;;;;13.29;59.05;100040.59;5109871;28;20319;-94
2022/11/04 07:01:20;;;;;;;;;;;;;;;13.36;58.80;100042.25;5111576;28;19916;-94
2022/11/04 07:03:50;;;;;;;;;;;;;;;13.53;59.38;100041.91;5111517;28;19911;-94
2022/11/04 07:06:15;;;;;;;;;;;;;;;13.79;58.62;100045.72;5110056;28;20014;-93
2022/11/04 07:08:40;;;;;;;;;;;;;;;13.87;58.06;100043.81;5093103;28;20034;-93
2022/11/04 07:11:06;;;;;;;;;;;;;;;13.92;57.74;100047.22;5109631;28;19912;-93
2022/11/04 07:13:31;;;;;;;;;;;;;;;14.09;57.89;100045.94;5092832;28;19926;-94
2022/11/04 07:15:57;;;;;;;;;;;;;;;14.35;55.77;100042.66;5109979;28;20006;-93
2022/11/04 07:18:22;;;;;;;;;;;;;;;14.17;56.72;100037.81;5110990;28;19976;-94
2022/11/04 07:20:47;;;;;;;;;;;;;;;14.14;57.47;100028.13;5109662;28;19915;-94
2022/11/04 07:23:13;;;;;;;;;;;;;;;14.28;56.92;100031.31;5110268;28;19918;-95
2022/11/04 07:25:38;;;;;;;;;;;;;;;14.42;56.82;100033.63;5092937;28;20016;-92
2022/11/04 07:28:04;;;;;;;;;;;;;;;14.56;56.31;100033.25;5110643;28;19911;-91
2022/11/04 07:30:30;;;;;;;;;;;;;;;14.84;55.57;100028.16;5110260;28;19919;-93
2022/11/04 07:32:55;;;;;;;;;;;;;;;15.07;54.92;100028.41;5109506;28;19922;-95
2022/11/04 07:35:21;;;;;;;;;;;;;;;14.97;55.41;100015.38;5108922;28;20350;-93
2022/11/04 07:37:46;;;;;;;;;;;;;;;15.14;54.91;100012.25;5093193;28;19920;-94
2022/11/04 07:40:12;;;;;;;;;;;;;;;15.19;54.74;100012.13;5109559;28;19966;-94
2022/11/04 07:42:38;;;;;;;;;;;;;;;15.06;55.46;100003.63;5109531;28;19920;-93
2022/11/04 07:45:04;;;;;;;;;;;;;;;14.92;56.35;100000.47;5109498;28;19934;-95
2022/11/04 07:47:30;;;;;;;;;;;;;;;14.61;57.45;99990.69;5109685;28;19915;-92
2022/11/04 07:49:56;;;;;;;;;;;;;;;14.64;57.55;99990.63;5110066;28;19912;-94
2022/11/04 07:52:22;;;;;;;;;;;;;;;14.77;57.81;99994.69;5109496;28;19912;-94
2022/11/04 07:54:47;;;;;;;;;;;;;;;14.84;56.93;99987.41;5109956;28;19915;-90
2022/11/04 07:57:13;;;;;;;;;;;;;;;14.87;57.05;99992.63;5110127;28;20359;-95
2022/11/04 07:59:38;;;;;;;;;;;;;;;14.93;56.96;99995.13;5092782;28;20014;-92
2022/11/04 08:02:04;;;;;;;;;;;;;;;14.86;57.25;99988.25;5109557;28;19938;-92
2022/11/04 08:04:31;;;;;;;;;;;;;;;15.00;57.24;99980.75;5108757;28;19915;-95
2022/11/04 08:06:57;;;;;;;;;;;;;;;14.91;57.75;99985.47;5108826;28;19919;-94
2022/11/04 08:09:24;;;;;;;;;;;;;;;15.00;57.54;99982.56;5109515;28;19915;-94
2022/11/04 08:11:51;;;;;;;;;;;;;;;15.20;57.55;99968.69;5109848;28;19938;-94
2022/11/04 08:14:16;;;;;;;;;;;;;;;15.22;57.15;99965.06;5109332;28;19972;-93
2022/11/04 08:16:42;;;;;;;;;;;;;;;15.26;57.22;99962.31;5109479;28;20377;-93
2022/11/04 08:19:09;;;;;;;;;;;;;;;14.95;58.95;99965.88;5110150;28;19921;-95
2022/11/04 08:21:36;;;;;;;;;;;;;;;15.04;59.08;99955.88;5110628;28;19915;-94
2022/11/04 08:24:04;;;;;;;;;;;;;;;15.05;60.43;99956.72;5108207;28;19915;-89
2022/11/04 08:26:30;;;;;;;;;;;;;;;15.17;60.54;99947.53;5109589;28;19915;-89
2022/11/04 08:28:56;;;;;;;;;;;;;;;15.21;60.57;99947.41;5109455;28;19918;-90
2022/11/04 08:31:23;;;;;;;;;;;;;;;15.32;60.30;99952.38;5109273;28;20305;-92
2022/11/04 08:33:49;;;;;;;;;;;;;;;15.32;59.51;99948.84;5109180;28;19923;-91
2022/11/04 08:36:16;;;;;;;;;;;;;;;15.25;60.44;99945.50;5107393;28;19922;-87
2022/11/04 08:38:42;;;;;;;;;;;;;;;15.14;61.19;99951.13;5108904;28;20305;-88
2022/11/04 08:41:10;;;;;;;;;;;;;;;15.14;61.14;99944.97;5108553;28;19911;-90
2022/11/04 08:43:37;;;;;;;;;;;;;;;15.50;60.14;99942.09;5108957;28;19961;-88
2022/11/04 08:46:06;;;;;;;;;;;;;;;15.54;59.91;99947.25;5108220;28;19915;-88
2022/11/04 08:48:32;;;;;;;;;;;;;;;15.34;60.81;99939.91;5108444;28;19915;-87
2022/11/04 08:50:58;;;;;;;;;;;;;;;15.44;60.44;99937.81;5108111;28;19915;-88
2022/11/04 08:53:25;;;;;;;;;;;;;;;15.86;59.51;99928.56;5108233;28;19962;-88
2022/11/04 08:55:50;;;;;;;;;;;;;;;16.00;59.32;99922.78;5107274;28;20012;-87
2022/11/04 08:58:16;;;;;;;;;;;;;;;16.10;58.66;99910.91;5108376;28;19919;-87
2022/11/04 09:00:41;;;;;;;;;;;;;;;16.14;58.38;99909.00;5108397;28;19999;-88
2022/11/04 09:03:07;;;;;;;;;;;;;;;16.09;58.62;99915.34;5108725;28;20006;-87
2022/11/04 09:05:32;;;;;;;;;;;;;;;16.25;57.51;99909.47;5108142;28;20373;-87
2022/11/04 09:07:59;;;;;;;;;;;;;;;16.38;57.51;99901.97;5106575;28;19926;-87
2022/11/04 09:10:25;;;;;;;;;;;;;;;16.38;57.53;99902.81;5108665;28;19916;-87
2022/11/04 09:12:50;;;;;;;;;;;;;;;16.41;58.52;99900.03;5108216;28;20748;-88
2022/11/04 09:15:16;;;;;;;;;;;;;;;16.74;57.28;99885.56;5108114;28;20052;-88
2022/11/04 09:17:43;;;;;;;;;;;;;;;16.91;56.82;99887.63;5108106;28;19998;-88
2022/11/04 09:20:09;;;;;;;;;;;;;;;16.68;57.04;99880.44;5108193;28;19922;-87
2022/11/04 09:22:34;;;;;;;;;;;;;;;16.76;57.19;99873.94;5107948;28;19916;-88
2022/11/04 09:24:59;;;;;;;;;;;;;;;17.08;56.50;99869.16;5108142;28;19981;-88
2022/11/04 09:27:25;;;;;;;;;;;;;;;17.15;55.94;99875.16;5108112;28;19916;-88
2022/11/04 09:29:50;;;;;;;;;;;;;;;16.64;56.79;99867.25;5107817;28;20308;-88
2022/11/04 09:32:16;;;;;;;;;;;;;;;16.67;57.21;99868.06;5107741;28;20373;-88
2022/11/04 09:34:41;;;;;;;;;;;;;;;16.35;57.82;99867.47;5107741;28;19978;-88
2022/11/04 09:37:07;;;;;;;;;;;;;;;16.10;58.40;99858.53;5106547;28;20411;-87
2022/11/04 09:39:32;;;;;;;;;;;;;;;16.56;57.30;99849.81;5108301;28;20002;-88
2022/11/04 09:42:16;;;;;;;;;;;;;;;16.83;56.60;99846.09;5108161;28;19916;-88
2022/11/04 09:44:53;;;;;;;;;;;;;;;16.18;57.86;99850.28;5107992;28;19916;-88
2022/11/04 09:47:21;;;;;;;;;;;;;;;16.26;58.33;99847.34;5107425;28;19969;-88
2022/11/04 09:49:49;;;;;;;;;;;;;;;16.39;57.54;99847.78;5108018;28;20359;-87
2022/11/04 09:52:23;;;;;;;;;;;;;;;16.58;56.79;99830.19;5107644;28;19934;-88
2022/11/04 09:55:05;;;;;;;;;;;;;;;16.74;57.02;99832.28;5107563;28;20282;-88
2022/11/04 09:57:31;;;;;;;;;;;;;;;16.91;55.72;99829.84;5108601;28;20249;-88
2022/11/04 09:59:57;;;;;;;;;;;;;;;16.92;56.14;99810.28;5111804;28;19919;-89
2022/11/04 10:02:41;;;;;;;;;;;;;;;16.97;55.67;99799.44;5104803;27;20526;-88
2022/11/04 10:05:33;;;;;;;;;;;;;;;17.06;55.04;99808.88;5103583;27;19916;-87
2022/11/04 10:08:08;;;;;;;;;;;;;;;17.23;54.73;99801.06;5098915;27;19920;-87
2022/11/04 10:10:36;;;;;;;;;;;;;;;17.04;55.03;99794.72;5105779;28;19963;-87
2022/11/04 10:13:05;;;;;;;;;;;;;;;16.82;55.60;99799.09;5098898;28;19916;-87
2022/11/04 10:15:42;;;;;;;;;;;;;;;16.78;55.68;99786.81;5090504;28;19920;-87
2022/11/04 10:18:26;;;;;;;;;;;;;;;16.99;54.98;99786.91;5092572;28;19912;-88
2022/11/04 10:20:56;;;;;;;;;;;;;;;16.90;55.33;99782.84;5089127;28;20282;-87
2022/11/04 10:23:25;;;;;;;;;;;;;;;17.15;55.00;99772.06;5117733;27;19914;-86
2022/11/04 10:25:57;;;;;;;;;;;;;;;17.30;54.57;99764.34;5101882;27;19919;-86
2022/11/04 10:28:26;;;;;;;;;;;;;;;17.28;54.63;99760.88;5118843;27;19912;-87
2022/11/04 10:30:52;;;;;;;;;;;;;;;17.46;53.87;99760.13;5101190;27;19915;-88
2022/11/04 10:33:34;;;;;;;;;;;;;;;17.10;54.58;99757.19;5099769;28;20042;-86
2022/11/04 10:36:05;;;;;;;;;;;;;;;17.11;54.56;99753.59;5094815;28;19920;-87
2022/11/04 10:38:36;;;;;;;;;;;;;;;16.83;55.76;99739.53;5107803;27;19925;-87
2022/11/04 10:41:04;;;;;;;;;;;;;;;16.72;56.81;99736.44;5107252;28;20396;-86
2022/11/04 10:43:29;;;;;;;;;;;;;;;17.30;54.46;99737.69;5096754;28;19955;-85
2022/11/04 10:45:54;;;;;;;;;;;;;;;17.51;53.37;99726.09;5104345;28;19975;-85
2022/11/04 10:48:23;;;;;;;;;;;;;;;17.40;53.70;99716.84;5088974;28;19916;-86
2022/11/04 10:50:56;;;;;;;;;;;;;;;17.39;54.14;99715.97;5107701;28;19936;-86
2022/11/04 10:53:23;;;;;;;;;;;;;;;17.75;52.86;99712.66;5100774;27;19920;-87
2022/11/04 10:56:01;;;;;;;;;;;;;;;17.80;52.60;99709.78;5089273;28;19919;-86
2022/11/04 10:58:29;;;;;;;;;;;;;;;17.77;52.93;99701.91;5090030;28;20377;-84
2022/11/04 11:00:56;;;;;;;;;;;;;;;17.58;52.93;99699.16;5090373;28;19970;-86
2022/11/04 11:03:26;;;;;;;;;;;;;;;17.15;54.60;99691.25;5090584;28;20307;-87
2022/11/04 11:05:52;;;;;;;;;;;;;;;17.44;53.91;99697.09;5090526;28;20364;-87
2022/11/04 11:08:31;;;;;;;;;;;;;;;17.35;53.63;99691.25;5090011;28;20386;-87
2022/11/04 11:10:57;;;;;;;;;;;;;;;17.21;54.84;99688.31;5089923;28;19916;-87
2022/11/04 11:13:26;;;;;;;;;;;;;;;17.41;53.72;99683.91;5089815;28;19961;-87
2022/11/04 11:16:04;;;;;;;;;;;;;;;17.46;53.32;99674.78;5089344;28;19962;-87
2022/11/04 11:18:29;;;;;;;;;;;;;;;17.30;53.48;99671.94;5088730;28;19949;-88
2022/11/04 11:21:19;;;;;;;;;;;;;;;17.04;55.04;99666.81;5089015;28;19919;-88
2022/11/04 11:23:47;;;;;;;;;;;;;;;17.26;53.75;99670.31;5088756;28;19916;-86
2022/11/04 11:26:17;;;;;;;;;;;;;;;17.25;53.19;99665.06;5089197;28;19986;-87
2022/11/04 11:28:47;;;;;;;;;;;;;;;17.49;52.76;99663.13;5089157;28;19997;-87
2022/11/04 11:31:15;;;;;;;;;;;;;;;17.78;52.01;99660.94;5089625;28;20304;-87
2022/11/04 11:33:46;;;;;;;;;;;;;;;17.64;52.45;99656.22;5089716;28;19916;-87
2022/11/04 11:36:25;;;;;;;;;;;;;;;17.68;52.52;99656.03;5089647;28;19908;-87
2022/11/04 11:38:56;;;;;;;;;;;;;;;17.51;52.75;99646.09;5089934;28;19937;-87
2022/11/04 11:41:27;;;;;;;;;;;;;;;17.83;52.15;99643.81;5089541;28;20378;-87
2022/11/04 11:43:54;;;;;;;;;;;;;;;17.65;52.53;99648.16;5089198;28;19916;-88
2022/11/04 11:46:24;;;;;;;;;;;;;;;17.80;52.64;99641.28;5090163;28;20064;-87
2022/11/04 11:48:50;;;;;;;;;;;;;;;17.79;52.49;99628.84;5090066;28;19964;-87
2022/11/04 11:51:24;;;;;;;;;;;;;;;17.76;52.41;99634.34;5089625;28;19932;-86
2022/11/04 11:54:07;;;;;;;;;;;;;;;17.64;52.30;99640.22;5089742;28;20040;-87
2022/11/04 11:56:42;;;;;;;;;;;;;;;17.41;52.80;99630.59;5089872;28;19915;-87
2022/11/04 11:59:17;;;;;;;;;;;;;;;17.79;52.61;99630.66;5090327;28;20002;-87
2022/11/04 12:01:51;;;;;;;;;;;;;;;17.84;51.95;99618.88;5092305;28;19912;-86
2022/11/04 12:04:18;;;;;;;;;;;;;;;17.46;53.32;99615.28;5093779;28;20003;-87
2022/11/04 12:06:43;;;;;;;;;;;;;;;17.59;52.92;99616.44;5090390;28;19968;-88
2022/11/04 12:09:17;;;;;;;;;;;;;;;17.84;52.22;99615.31;5102214;28;19965;-82
2022/11/04 12:11:46;;;;;;;;;;;;;;;18.19;51.20;99610.16;5106771;28;19912;-83
2022/11/04 12:14:23;;;;;;;;;;;;;;;18.34;50.71;99608.56;5108886;28;19919;-87
2022/11/04 12:16:55;;;;;;;;;;;;;;;18.28;50.12;99590.19;5110755;28;19966;-86
2022/11/04 12:19:28;;;;;;;;;;;;;;;18.41;49.69;99589.50;5108511;28;19916;-86
2022/11/04 12:22:08;;;;;;;;;;;;;;;18.49;49.96;99596.25;5110036;28;19911;-85
2022/11/04 12:24:42;;;;;;;;;;;;;;;18.35;50.04;99579.13;5109111;28;19923;-86
2022/11/04 12:27:13;;;;;;;;;;;;;;;18.50;49.81;99581.97;5109098;28;19935;-87
2022/11/04 12:29:41;;;;;;;;;;;;;;;18.49;49.07;99575.78;5108782;28;19920;-86
2022/11/04 12:32:23;;;;;;;;;;;;;;;18.76;48.74;99580.66;5108503;28;20456;-86
2022/11/04 12:35:02;;;;;;;;;;;;;;;18.53;48.97;99565.78;5108905;28;20048;-86
2022/11/04 12:37:39;;;;;;;;;;;;;;;18.79;48.65;99564.47;5108858;28;19908;-86
2022/11/04 12:40:11;;;;;;;;;;;;;;;18.59;48.72;99563.66;5108446;28;19922;-85
2022/11/04 12:42:36;;;;;;;;;;;;;;;18.67;48.27;99557.09;5107406;28;19912;-86
2022/11/04 12:45:11;;;;;;;;;;;;;;;18.80;48.33;99555.53;5107394;27;19923;-86
2022/11/04 12:47:39;;;;;;;;;;;;;;;18.50;49.58;99542.75;5109068;28;19911;-86
2022/11/04 12:50:17;;;;;;;;;;;;;;;18.86;48.53;99541.88;5106836;28;19922;-87
2022/11/04 12:53:01;;;;;;;;;;;;;;;18.88;48.88;99539.13;5108252;28;19912;-86
2022/11/04 12:55:45;;;;;;;;;;;;;;;18.88;48.32;99531.97;5108462;28;20385;-85
2022/11/04 12:58:19;;;;;;;;;;;;;;;18.81;49.26;99529.66;5108485;28;19912;-87
2022/11/04 13:00:47;;;;;;;;;;;;;;;18.91;48.54;99530.97;5108247;28;19915;-92
2022/11/04 13:03:16;;;;;;;;;;;;;;;18.84;49.00;99529.50;5106641;28;20393;-88
2022/11/04 13:05:42;;;;;;;;;;;;;;;18.87;48.81;99526.69;5108145;28;19911;-88
2022/11/04 13:08:13;;;;;;;;;;;;;;;19.03;48.39;99524.09;5108192;28;19919;-91
2022/11/04 13:10:45;;;;;;;;;;;;;;;19.17;48.02;99528.69;5108377;28;20392;-88
2022/11/04 13:13:11;;;;;;;;;;;;;;;18.87;49.08;99527.56;5108059;28;19973;-88
2022/11/04 13:15:48;;;;;;;;;;;;;;;18.91;48.50;99531.81;5107953;28;19911;-88
2022/11/04 13:18:17;;;;;;;;;;;;;;;18.79;48.69;99535.94;5108197;28;19984;-89
2022/11/04 13:21:05;;;;;;;;;;;;;;;18.74;48.79;99526.44;5108413;28;19915;-89
2022/11/04 13:23:38;;;;;;;;;;;;;;;18.70;49.11;99531.06;5107436;28;19912;-88